Time;durP1;ratioP1;P1;durP2;ratioP2;P2;SDS_P1;SDS_P2;PMS_P1;PMS_P2;Temp;Humidity;BMP_temperature;BMP_pressure;BME280_temperature;BME280_humidity;BME280_pressure;Samples;Min_cycle;Max_cycle;Signal;HPM_P1;HPM_P2
2021/01/11 00:02:04;;;;;;;25.02;9.95;;;-3.00;99.90;;;;;;4995635;28;20034;-59
2021/01/11 00:04:31;;;;;;;21.75;10.00;;;-3.10;99.90;;;;;;4995464;28;20030;-59
2021/01/11 00:06:57;;;;;;;22.30;9.63;;;-3.10;99.90;;;;;;4995660;28;20034;-59
2021/01/11 00:09:23;;;;;;;35.38;14.07;;;-3.10;99.90;;;;;;4995048;28;20066;-59
2021/01/11 00:11:49;;;;;;;27.95;12.40;;;-3.00;99.90;;;;;;4995384;28;20030;-59
2021/01/11 00:14:16;;;;;;;25.60;10.88;;;-3.10;99.90;;;;;;4994984;28;20027;-58
2021/01/11 00:16:42;;;;;;;24.58;9.40;;;-3.10;99.90;;;;;;4995413;28;20099;-59
2021/01/11 00:19:08;;;;;;;22.30;9.73;;;-3.20;99.90;;;;;;4995353;28;20080;-62
2021/01/11 00:21:34;;;;;;;22.80;10.45;;;-3.30;99.90;;;;;;4994817;28;20030;-59
2021/01/11 00:24:00;;;;;;;20.60;9.35;;;-3.40;99.90;;;;;;4995227;28;20105;-59
2021/01/11 00:26:25;;;;;;;20.52;9.57;;;-3.30;99.90;;;;;;4994952;28;20087;-58
2021/01/11 00:28:52;;;;;;;20.90;10.43;;;-3.30;99.90;;;;;;4994230;28;20026;-58
2021/01/11 00:31:25;;;;;;;20.05;9.48;;;-3.40;99.90;;;;;;4994520;28;20046;-59
2021/01/11 00:33:52;;;;;;;27.33;11.02;;;-3.40;99.90;;;;;;4995076;28;20054;-57
2021/01/11 00:36:20;;;;;;;37.60;15.50;;;-3.30;99.90;;;;;;4994753;28;20122;-58
2021/01/11 00:38:47;;;;;;;45.92;18.92;;;-3.30;99.90;;;;;;4994948;28;20035;-59
2021/01/11 00:41:19;;;;;;;22.48;10.85;;;-3.10;99.90;;;;;;4994570;28;20034;-59
2021/01/11 00:43:47;;;;;;;27.83;12.68;;;-3.20;99.90;;;;;;4994964;28;20114;-59
2021/01/11 00:46:28;;;;;;;22.98;10.35;;;-3.10;99.90;;;;;;4994512;28;20034;-58
2021/01/11 00:48:55;;;;;;;21.92;9.52;;;-3.10;99.90;;;;;;4994532;28;20035;-58
2021/01/11 00:51:22;;;;;;;23.55;9.30;;;-3.30;99.90;;;;;;4994230;28;20050;-59
2021/01/11 00:53:48;;;;;;;23.20;10.00;;;-3.30;99.90;;;;;;4994727;28;20053;-57
2021/01/11 00:56:17;;;;;;;22.17;9.50;;;-3.50;99.90;;;;;;4994284;28;20039;-58
2021/01/11 00:58:43;;;;;;;20.77;10.20;;;-3.50;99.90;;;;;;4994415;28;20038;-59
2021/01/11 01:01:10;;;;;;;22.45;9.82;;;-3.50;99.90;;;;;;4994268;28;20149;-59
2021/01/11 01:03:38;;;;;;;21.13;9.25;;;-3.50;99.90;;;;;;4994339;28;20038;-59
2021/01/11 01:06:08;;;;;;;18.38;9.05;;;-3.60;99.90;;;;;;4994073;28;20058;-59
2021/01/11 01:08:34;;;;;;;19.33;8.90;;;-3.70;99.90;;;;;;4992788;28;20116;-58
2021/01/11 01:11:00;;;;;;;23.38;10.07;;;-3.60;99.90;;;;;;4994126;28;20124;-59
2021/01/11 01:13:26;;;;;;;19.33;9.63;;;-3.70;99.90;;;;;;4994112;28;20041;-59
2021/01/11 01:15:52;;;;;;;20.63;10.10;;;-3.70;99.90;;;;;;4994195;28;20116;-59
2021/01/11 01:18:17;;;;;;;23.17;10.10;;;-3.70;99.90;;;;;;4993849;28;20391;-59
2021/01/11 01:20:43;;;;;;;21.77;9.32;;;-3.80;99.90;;;;;;4994090;28;20239;-57
2021/01/11 01:23:09;;;;;;;21.55;9.15;;;-3.70;99.90;;;;;;4994122;28;20026;-59
2021/01/11 01:25:35;;;;;;;19.08;8.43;;;-3.60;99.90;;;;;;4993654;28;20034;-59
2021/01/11 01:28:01;;;;;;;22.73;10.27;;;-3.60;99.90;;;;;;4993834;28;20035;-59
2021/01/11 01:30:27;;;;;;;17.20;8.32;;;-3.50;99.90;;;;;;4993843;28;20168;-59
2021/01/11 01:32:53;;;;;;;18.10;8.57;;;-3.50;99.90;;;;;;4993543;28;20043;-60
2021/01/11 01:35:20;;;;;;;22.75;9.07;;;-3.60;99.90;;;;;;4993546;28;20041;-59
2021/01/11 01:37:45;;;;;;;17.45;8.70;;;-3.50;99.90;;;;;;4993465;28;20057;-59
2021/01/11 01:40:12;;;;;;;16.48;9.40;;;-3.50;99.90;;;;;;4993722;28;20080;-58
2021/01/11 01:42:38;;;;;;;18.73;8.60;;;-3.60;99.90;;;;;;4993418;28;20089;-59
2021/01/11 01:45:06;;;;;;;24.83;10.48;;;-3.60;99.90;;;;;;4993503;28;20439;-59
2021/01/11 01:47:34;;;;;;;21.83;9.65;;;-3.60;99.90;;;;;;4993323;28;20042;-60
2021/01/11 01:50:04;;;;;;;19.08;9.15;;;-3.60;99.90;;;;;;4993607;28;20037;-58
2021/01/11 01:52:31;;;;;;;22.10;9.30;;;-3.70;99.90;;;;;;4993490;28;20030;-57
2021/01/11 01:54:57;;;;;;;20.50;9.55;;;-3.80;99.90;;;;;;4993279;28;20290;-57
2021/01/11 01:57:23;;;;;;;19.05;8.88;;;-3.90;99.90;;;;;;4993367;28;20038;-59
2021/01/11 01:59:49;;;;;;;21.20;9.30;;;-3.90;99.90;;;;;;4993516;28;20038;-59
2021/01/11 02:02:18;;;;;;;19.20;9.48;;;-3.90;99.90;;;;;;4992220;28;20022;-58
2021/01/11 02:04:45;;;;;;;25.63;10.40;;;-3.90;99.90;;;;;;4993117;28;20034;-59
2021/01/11 02:07:23;;;;;;;22.70;9.07;;;-3.90;99.90;;;;;;4993115;28;20030;-57
2021/01/11 02:10:31;;;;;;;20.98;9.10;;;-3.90;99.90;;;;;;4992976;28;20031;-58
2021/01/11 02:13:07;;;;;;;21.02;9.73;;;-3.80;99.90;;;;;;4992613;28;20065;-57
2021/01/11 02:15:58;;;;;;;21.08;9.00;;;-3.70;99.90;;;;;;4992797;28;20042;-59
2021/01/11 02:19:00;;;;;;;23.67;9.80;;;-3.70;99.90;;;;;;4992865;28;20042;-59
2021/01/11 02:22:05;;;;;;;21.50;9.80;;;-3.60;99.90;;;;;;4991946;28;20041;-59
2021/01/11 02:24:40;;;;;;;28.10;11.07;;;-3.60;99.90;;;;;;4992988;28;20038;-58
2021/01/11 02:27:46;;;;;;;28.23;11.93;;;-3.60;99.90;;;;;;4992885;28;20034;-58
2021/01/11 02:30:19;;;;;;;28.38;11.73;;;-3.60;99.90;;;;;;4991861;28;20031;-58
2021/01/11 02:32:50;;;;;;;26.75;11.00;;;-3.60;99.90;;;;;;4992564;28;20054;-57
2021/01/11 02:35:18;;;;;;;22.45;10.73;;;-3.50;99.90;;;;;;4992620;28;20034;-57
2021/01/11 02:37:45;;;;;;;30.58;11.93;;;-3.50;99.90;;;;;;4992421;28;20038;-59
2021/01/11 02:40:11;;;;;;;24.65;10.60;;;-3.50;99.90;;;;;;4992652;28;20054;-58
2021/01/11 02:42:38;;;;;;;21.20;10.05;;;-3.40;99.90;;;;;;4992909;28;20034;-59
2021/01/11 02:45:08;;;;;;;21.40;9.48;;;-3.40;99.90;;;;;;4992654;28;20105;-58
2021/01/11 02:47:50;;;;;;;21.95;10.20;;;-3.50;99.90;;;;;;4992482;28;20027;-59
2021/01/11 02:50:25;;;;;;;25.70;10.32;;;-3.50;99.90;;;;;;4992691;28;20046;-59
2021/01/11 02:53:11;;;;;;;22.08;9.60;;;-3.50;99.90;;;;;;4995050;28;20030;-58
2021/01/11 02:55:47;;;;;;;24.58;9.90;;;-3.60;99.90;;;;;;4996789;28;20034;-59
2021/01/11 02:58:36;;;;;;;23.08;10.18;;;-3.60;99.90;;;;;;4996869;28;20122;-59
2021/01/11 03:01:05;;;;;;;24.90;10.57;;;-3.60;99.90;;;;;;4995778;28;20057;-59
2021/01/11 03:03:32;;;;;;;23.23;9.95;;;-3.60;99.90;;;;;;4995438;28;20061;-56
2021/01/11 03:05:58;;;;;;;18.88;9.20;;;-3.60;99.90;;;;;;4996635;28;20038;-59
2021/01/11 03:08:24;;;;;;;19.75;8.55;;;-3.70;99.90;;;;;;4995418;28;20069;-58
2021/01/11 03:10:53;;;;;;;19.55;8.90;;;-3.80;99.90;;;;;;4996472;28;20066;-58
2021/01/11 03:13:20;;;;;;;21.52;9.15;;;-4.00;99.90;;;;;;4996606;28;20022;-58
2021/01/11 03:15:47;;;;;;;18.55;9.32;;;-4.10;99.90;;;;;;4996343;28;20031;-59
2021/01/11 03:18:13;;;;;;;22.45;9.25;;;-4.10;99.90;;;;;;4995313;28;20054;-59
2021/01/11 03:20:38;;;;;;;21.98;9.65;;;-4.20;99.90;;;;;;4996303;28;20061;-58
2021/01/11 03:23:04;;;;;;;20.55;9.55;;;-4.30;99.90;;;;;;4996395;28;20030;-58
2021/01/11 03:25:30;;;;;;;23.77;10.45;;;-4.20;99.90;;;;;;4995798;28;20034;-57
2021/01/11 03:27:56;;;;;;;24.38;10.75;;;-4.20;99.90;;;;;;4996269;28;20030;-58
2021/01/11 03:30:22;;;;;;;24.63;10.82;;;-4.30;99.90;;;;;;4995940;28;20065;-59
2021/01/11 03:32:49;;;;;;;30.48;11.25;;;-4.20;99.90;;;;;;4995635;28;20053;-59
2021/01/11 03:35:15;;;;;;;27.35;12.75;;;-4.20;99.90;;;;;;4995894;28;20031;-58
2021/01/11 03:37:41;;;;;;;27.65;12.02;;;-4.10;99.90;;;;;;4995927;28;20030;-59
2021/01/11 03:40:08;;;;;;;28.10;12.18;;;-4.00;99.90;;;;;;4995720;28;20208;-59
2021/01/11 03:42:40;;;;;;;30.90;12.82;;;-4.00;99.90;;;;;;4995998;28;20034;-59
2021/01/11 03:45:09;;;;;;;28.48;12.27;;;-3.90;99.90;;;;;;4996003;28;20038;-60
2021/01/11 03:47:35;;;;;;;30.65;13.98;;;-3.90;99.90;;;;;;4995867;28;20033;-60
2021/01/11 03:50:05;;;;;;;34.08;12.85;;;-3.80;99.90;;;;;;4995779;28;20030;-59
2021/01/11 03:52:37;;;;;;;33.95;13.93;;;-3.60;99.90;;;;;;4995676;28;20031;-59
2021/01/11 03:55:04;;;;;;;30.77;14.00;;;-3.30;99.90;;;;;;4995400;28;20069;-60
2021/01/11 03:57:31;;;;;;;35.35;15.40;;;-3.20;99.90;;;;;;4995633;28;20030;-59
2021/01/11 03:59:58;;;;;;;31.75;14.05;;;-3.20;99.90;;;;;;4995736;28;20046;-59
2021/01/11 04:02:24;;;;;;;27.48;13.10;;;-3.20;99.90;;;;;;4995667;28;20039;-60
2021/01/11 04:04:50;;;;;;;30.65;13.18;;;-3.10;99.90;;;;;;4994133;28;20080;-60
2021/01/11 04:07:16;;;;;;;28.92;11.23;;;-3.20;99.90;;;;;;4995572;28;20505;-59
2021/01/11 04:09:42;;;;;;;31.33;12.98;;;-3.20;99.90;;;;;;4994900;28;20035;-60
2021/01/11 04:12:08;;;;;;;32.67;13.60;;;-3.40;99.90;;;;;;4993954;28;20040;-58
2021/01/11 04:14:34;;;;;;;32.60;13.52;;;-3.40;99.90;;;;;;4995097;28;20165;-59
2021/01/11 04:17:00;;;;;;;26.90;11.93;;;-3.40;99.90;;;;;;4994964;28;20117;-58
2021/01/11 04:19:26;;;;;;;29.35;12.15;;;-3.60;99.90;;;;;;4995044;28;20033;-59
2021/01/11 04:21:52;;;;;;;27.77;13.25;;;-3.60;99.90;;;;;;4995062;28;20356;-59
2021/01/11 04:24:18;;;;;;;28.77;11.73;;;-3.60;99.90;;;;;;4994982;28;20061;-60
2021/01/11 04:26:44;;;;;;;24.83;11.90;;;-3.60;99.90;;;;;;4994818;28;20121;-58
2021/01/11 04:29:10;;;;;;;28.55;12.48;;;-3.60;99.90;;;;;;4994782;28;20031;-59
2021/01/11 04:31:36;;;;;;;26.60;11.60;;;-3.70;99.90;;;;;;4994760;28;20376;-59
2021/01/11 04:34:02;;;;;;;31.95;11.85;;;-3.60;99.90;;;;;;4995076;28;20069;-59
2021/01/11 04:36:33;;;;;;;25.08;11.15;;;-3.60;99.90;;;;;;4994982;28;20031;-58
2021/01/11 04:38:59;;;;;;;27.83;11.03;;;-3.60;99.90;;;;;;4995018;28;20034;-58
2021/01/11 04:41:29;;;;;;;30.05;12.52;;;-3.70;99.90;;;;;;4994934;28;20638;-59
2021/01/11 04:43:55;;;;;;;26.97;11.77;;;-3.80;99.90;;;;;;4994598;28;20033;-58
2021/01/11 04:46:21;;;;;;;28.73;11.55;;;-3.90;99.90;;;;;;4994783;28;20035;-59
2021/01/11 04:48:47;;;;;;;27.55;11.80;;;-3.80;99.90;;;;;;4993016;28;20042;-58
2021/01/11 04:51:13;;;;;;;24.83;11.48;;;-3.90;99.90;;;;;;4994692;28;20117;-58
2021/01/11 04:53:42;;;;;;;25.60;10.05;;;-4.00;99.90;;;;;;4994215;28;20066;-59
2021/01/11 04:56:13;;;;;;;27.58;11.13;;;-4.00;99.90;;;;;;4985915;28;20070;-59
2021/01/11 04:59:06;;;;;;;16.83;8.57;;;-4.00;99.90;;;;;;4994477;28;20027;-58
2021/01/11 05:01:32;;;;;;;27.45;12.35;;;-4.00;99.90;;;;;;4995178;28;20037;-58
2021/01/11 05:04:03;;;;;;;28.92;12.75;;;-4.00;99.90;;;;;;4992865;28;20138;-60
2021/01/11 05:06:29;;;;;;;27.63;12.00;;;-4.00;99.90;;;;;;4994430;28;20026;-59
2021/01/11 05:09:08;;;;;;;27.08;11.77;;;-3.90;99.90;;;;;;4993210;28;20038;-58
2021/01/11 05:11:35;;;;;;;27.98;11.40;;;-3.80;99.90;;;;;;4994263;28;20030;-59
2021/01/11 05:14:01;;;;;;;29.30;10.98;;;-3.80;99.90;;;;;;4994390;28;20026;-58
2021/01/11 05:16:27;;;;;;;21.10;10.23;;;-3.90;99.90;;;;;;4993582;28;20042;-59
2021/01/11 05:18:57;;;;;;;30.42;11.32;;;-3.80;99.90;;;;;;4993988;28;20101;-60
2021/01/11 05:21:44;;;;;;;29.60;11.90;;;-3.90;99.90;;;;;;4993020;28;20030;-59
2021/01/11 05:24:34;;;;;;;22.73;9.93;;;-3.90;99.90;;;;;;4994080;28;20034;-60
2021/01/11 05:27:11;;;;;;;21.00;10.55;;;-4.10;99.90;;;;;;4993630;28;20066;-59
2021/01/11 05:29:39;;;;;;;24.33;9.82;;;-4.10;99.90;;;;;;4992278;28;20042;-59
2021/01/11 05:32:09;;;;;;;25.58;11.70;;;-4.10;99.90;;;;;;4993431;28;20061;-59
2021/01/11 05:34:50;;;;;;;28.58;11.23;;;-4.10;99.90;;;;;;4993692;28;20032;-60
2021/01/11 05:37:44;;;;;;;26.10;11.00;;;-4.10;99.90;;;;;;4993622;28;20034;-60
2021/01/11 05:40:16;;;;;;;30.25;12.68;;;-4.20;99.90;;;;;;4993778;28;20062;-59
2021/01/11 05:42:51;;;;;;;24.40;11.20;;;-4.30;99.90;;;;;;4993602;28;20030;-59
2021/01/11 05:45:29;;;;;;;32.15;13.18;;;-4.20;99.90;;;;;;4993762;28;20118;-58
2021/01/11 05:48:09;;;;;;;34.17;13.40;;;-4.10;99.90;;;;;;4993310;28;20109;-58
2021/01/11 05:50:42;;;;;;;29.20;13.15;;;-4.00;99.90;;;;;;4992995;28;20041;-57
2021/01/11 05:53:19;;;;;;;27.67;13.68;;;-3.90;99.90;;;;;;4993434;28;20026;-57
2021/01/11 05:55:51;;;;;;;32.35;12.95;;;-3.90;99.90;;;;;;4993517;28;20122;-58
2021/01/11 05:58:22;;;;;;;35.25;13.65;;;-3.90;99.90;;;;;;4993574;28;20030;-60
2021/01/11 06:00:49;;;;;;;31.67;13.02;;;-3.90;99.90;;;;;;4965061;28;20187;-59
2021/01/11 06:03:16;;;;;;;33.60;13.07;;;-3.80;99.90;;;;;;5004107;28;20026;-60
2021/01/11 06:05:43;;;;;;;33.97;13.93;;;-3.80;99.90;;;;;;4993090;28;20118;-60
2021/01/11 06:08:13;;;;;;;27.60;13.25;;;-3.80;99.90;;;;;;4993034;28;20031;-59
2021/01/11 06:10:40;;;;;;;32.95;13.63;;;-3.80;99.90;;;;;;4992937;28;20026;-60
2021/01/11 06:13:11;;;;;;;28.38;12.88;;;-3.80;99.90;;;;;;4992985;28;20035;-60
2021/01/11 06:15:38;;;;;;;28.60;11.87;;;-3.70;99.90;;;;;;4993132;28;20030;-60
2021/01/11 06:18:12;;;;;;;32.20;13.07;;;-3.60;99.90;;;;;;4992984;28;20368;-58
2021/01/11 06:20:46;;;;;;;31.90;13.60;;;-3.70;99.90;;;;;;4991710;28;20038;-61
2021/01/11 06:23:26;;;;;;;39.80;15.00;;;-3.70;99.90;;;;;;4991721;28;20109;-59
2021/01/11 06:25:52;;;;;;;50.92;20.40;;;-3.70;99.90;;;;;;4992369;28;20030;-60
2021/01/11 06:28:30;;;;;;;34.65;13.68;;;-3.80;99.90;;;;;;5007476;28;20038;-60
2021/01/11 06:31:12;;;;;;;28.38;11.95;;;-3.80;99.90;;;;;;4992597;28;20054;-59
2021/01/11 06:33:39;;;;;;;23.23;10.70;;;-3.90;99.90;;;;;;4991668;28;20026;-60
2021/01/11 06:36:30;;;;;;;29.58;11.55;;;-3.90;99.90;;;;;;4992727;28;20505;-59
2021/01/11 06:39:04;;;;;;;26.80;10.53;;;-4.00;99.90;;;;;;4992527;28;20033;-59
2021/01/11 06:41:32;;;;;;;26.95;11.55;;;-4.00;99.90;;;;;;4992432;28;20304;-60
2021/01/11 06:44:07;;;;;;;27.30;11.85;;;-4.00;99.90;;;;;;4992710;28;20030;-60
2021/01/11 06:46:34;;;;;;;26.90;11.55;;;-4.10;99.90;;;;;;4992567;28;20050;-60
2021/01/11 06:49:04;;;;;;;24.50;11.82;;;-4.20;99.90;;;;;;4991065;28;20109;-59
2021/01/11 06:51:31;;;;;;;27.23;11.07;;;-4.10;99.90;;;;;;4992066;28;20030;-60
2021/01/11 06:54:18;;;;;;;28.65;11.85;;;-4.10;99.90;;;;;;4990752;28;20164;-59
2021/01/11 06:56:45;;;;;;;31.73;12.85;;;-4.00;99.90;;;;;;4989840;28;20080;-60
2021/01/11 06:59:18;;;;;;;32.13;13.50;;;-3.90;99.90;;;;;;4991118;28;20116;-60
2021/01/11 07:01:47;;;;;;;29.10;12.65;;;-3.90;99.90;;;;;;4991060;28;20099;-60
2021/01/11 07:04:36;;;;;;;40.63;13.80;;;-3.90;99.90;;;;;;4990731;28;20084;-60
2021/01/11 07:07:03;;;;;;;30.35;12.55;;;-3.80;99.90;;;;;;4991837;28;20037;-61
2021/01/11 07:09:29;;;;;;;31.05;13.27;;;-3.80;99.90;;;;;;4992504;28;20030;-59
2021/01/11 07:12:04;;;;;;;36.70;15.85;;;-3.70;99.90;;;;;;4992365;28;20038;-61
2021/01/11 07:14:58;;;;;;;32.72;14.07;;;-3.70;99.90;;;;;;4992281;28;20030;-60
2021/01/11 07:17:41;;;;;;;30.85;13.50;;;-3.70;99.90;;;;;;4992228;28;20027;-60
2021/01/11 07:20:13;;;;;;;31.80;13.85;;;-3.60;99.90;;;;;;4992455;28;20074;-59
2021/01/11 07:22:42;;;;;;;34.17;14.73;;;-3.60;99.90;;;;;;4992636;28;20043;-59
2021/01/11 07:25:29;;;;;;;30.88;13.55;;;-3.60;99.90;;;;;;4992400;28;20026;-60
2021/01/11 07:28:03;;;;;;;32.03;13.75;;;-3.70;99.90;;;;;;4992032;28;20034;-60
2021/01/11 07:30:33;;;;;;;33.83;14.15;;;-3.70;99.90;;;;;;4992438;28;20037;-58
2021/01/11 07:33:09;;;;;;;;;;;-3.70;99.90;;;;;;4992570;28;20495;-59
2021/01/11 07:35:41;;;;;;;27.80;11.90;;;-3.70;99.90;;;;;;4996317;28;19972;-59
2021/01/11 07:38:14;;;;;;;34.50;13.45;;;-3.70;99.90;;;;;;4993442;28;20121;-58
2021/01/11 07:40:40;;;;;;;33.50;12.02;;;-3.60;99.90;;;;;;4995970;28;20031;-60
2021/01/11 07:43:06;;;;;;;30.63;12.20;;;-3.60;99.90;;;;;;4994756;28;20046;-60
2021/01/11 07:45:32;;;;;;;28.55;13.20;;;-3.50;99.90;;;;;;4995911;28;20081;-59
2021/01/11 07:47:58;;;;;;;36.72;14.10;;;-3.50;99.90;;;;;;4995503;28;20034;-59
2021/01/11 07:50:28;;;;;;;32.05;12.90;;;-3.40;99.90;;;;;;4995265;28;20036;-58
2021/01/11 07:52:56;;;;;;;24.47;15.30;;;-3.40;99.90;;;;;;4995790;28;20069;-60
2021/01/11 07:55:29;;;;;;;30.35;13.55;;;-3.40;99.90;;;;;;4995382;28;20042;-59
2021/01/11 07:58:05;;;;;;;38.97;13.40;;;-3.40;99.90;;;;;;4995394;28;20081;-57
2021/01/11 08:00:31;;;;;;;30.45;13.93;;;-3.30;99.90;;;;;;4995420;28;20129;-57
2021/01/11 08:02:58;;;;;;;29.10;12.38;;;-3.30;99.90;;;;;;4995432;28;20105;-58
2021/01/11 08:05:25;;;;;;;30.02;12.85;;;-3.40;99.90;;;;;;4995342;28;20044;-57
2021/01/11 08:08:05;;;;;;;27.40;13.00;;;-3.30;99.90;;;;;;4995472;28;20023;-59
2021/01/11 08:10:35;;;;;;;28.73;13.55;;;-3.20;99.90;;;;;;4994261;28;20035;-59
2021/01/11 08:13:08;;;;;;;25.67;12.27;;;-3.10;99.90;;;;;;4995403;28;20026;-58
2021/01/11 08:15:34;;;;;;;40.13;14.90;;;-3.00;99.90;;;;;;4995325;28;20034;-59
2021/01/11 08:18:04;;;;;;;33.08;12.85;;;-2.90;99.90;;;;;;4995135;28;20056;-58
2021/01/11 08:20:30;;;;;;;27.38;11.90;;;-2.70;99.90;;;;;;4994915;28;20042;-60
2021/01/11 08:22:56;;;;;;;22.40;11.10;;;-2.70;99.90;;;;;;4995229;28;20030;-59
2021/01/11 08:25:23;;;;;;;30.15;11.52;;;-2.80;99.90;;;;;;4994954;28;20035;-59
2021/01/11 08:27:51;;;;;;;23.90;10.90;;;-2.60;99.90;;;;;;4977556;28;20038;-58
2021/01/11 08:30:23;;;;;;;30.80;13.98;;;-2.50;99.90;;;;;;4995094;28;20134;-59
2021/01/11 08:32:50;;;;;;;33.22;14.75;;;-2.40;99.90;;;;;;4993517;28;20058;-58
2021/01/11 08:35:22;;;;;;;32.70;13.82;;;-2.40;99.90;;;;;;4993681;28;20061;-58
2021/01/11 08:37:48;;;;;;;26.05;12.18;;;-2.40;99.90;;;;;;4995069;28;20033;-59
2021/01/11 08:40:27;;;;;;;29.92;11.00;;;-2.40;99.90;;;;;;4994677;28;20129;-56
2021/01/11 08:42:52;;;;;;;27.42;10.88;;;-2.30;99.90;;;;;;4994411;28;20126;-55
2021/01/11 08:45:34;;;;;;;35.55;13.98;;;-2.20;99.90;;;;;;4994742;28;20121;-58
2021/01/11 08:48:07;;;;;;;29.70;12.45;;;-2.10;99.90;;;;;;4994334;28;20026;-58
2021/01/11 08:50:39;;;;;;;30.45;12.60;;;-2.10;99.90;;;;;;4993429;28;20046;-56
2021/01/11 08:53:25;;;;;;;24.73;10.57;;;-2.20;99.90;;;;;;4994264;28;20082;-58
2021/01/11 08:56:06;;;;;;;26.35;10.98;;;-2.30;99.90;;;;;;4994598;28;20054;-57
2021/01/11 08:58:50;;;;;;;28.95;11.88;;;-2.10;99.90;;;;;;4994581;28;20045;-58
2021/01/11 09:01:19;;;;;;;26.77;11.32;;;-2.00;99.90;;;;;;4993143;28;20042;-59
2021/01/11 09:03:55;;;;;;;24.00;11.02;;;-2.00;99.90;;;;;;4993818;28;20108;-58
2021/01/11 09:06:48;;;;;;;30.45;10.63;;;-2.10;99.90;;;;;;4994166;28;20023;-60
2021/01/11 09:09:19;;;;;;;22.90;10.77;;;-2.10;99.90;;;;;;4994106;28;20109;-59
2021/01/11 09:11:48;;;;;;;28.05;10.30;;;-1.90;99.90;;;;;;4994083;28;20041;-57
2021/01/11 09:14:17;;;;;;;28.42;10.65;;;-1.70;99.90;;;;;;4993715;28;20041;-59
2021/01/11 09:16:46;;;;;;;27.05;11.98;;;-1.50;99.90;;;;;;4994043;28;20063;-59
2021/01/11 09:19:18;;;;;;;29.40;10.95;;;-1.40;99.90;;;;;;4993716;28;20037;-59
2021/01/11 09:21:56;;;;;;;25.75;10.23;;;-1.30;99.90;;;;;;4994045;28;20096;-59
2021/01/11 09:24:22;;;;;;;26.25;10.48;;;-1.10;99.90;;;;;;4994079;28;20110;-58
2021/01/11 09:26:49;;;;;;;25.48;10.15;;;-1.20;99.90;;;;;;4993736;28;20034;-58
2021/01/11 09:29:14;;;;;;;24.70;10.25;;;-1.10;99.90;;;;;;4992677;28;20030;-58
2021/01/11 09:31:41;;;;;;;21.30;9.95;;;-1.00;99.90;;;;;;4993455;28;20046;-60
2021/01/11 09:34:07;;;;;;;24.73;9.25;;;-0.90;99.90;;;;;;4993740;28;20027;-60
2021/01/11 09:36:38;;;;;;;23.20;9.05;;;-0.80;99.90;;;;;;4993119;28;20049;-60
2021/01/11 09:39:07;;;;;;;22.00;9.45;;;-0.70;99.90;;;;;;4993540;28;20036;-61
2021/01/11 09:41:41;;;;;;;22.35;10.13;;;-0.70;99.90;;;;;;4993785;28;20047;-61
2021/01/11 09:44:07;;;;;;;22.65;9.70;;;-0.60;99.90;;;;;;4993741;28;20077;-61
2021/01/11 09:46:57;;;;;;;21.17;10.40;;;-0.40;99.90;;;;;;4993868;28;20054;-60
2021/01/11 09:49:24;;;;;;;19.77;10.00;;;-0.30;99.90;;;;;;4993092;28;20117;-61
2021/01/11 09:51:50;;;;;;;19.98;9.75;;;-0.10;99.90;;;;;;4992135;28;20093;-61
2021/01/11 09:54:17;;;;;;;27.50;11.75;;;0.10;99.90;;;;;;4991968;28;20030;-61
2021/01/11 09:56:44;;;;;;;21.25;10.15;;;0.20;99.90;;;;;;4993618;28;20030;-60
2021/01/11 09:59:10;;;;;;;24.52;10.38;;;0.30;99.90;;;;;;4992242;28;20093;-61
2021/01/11 10:01:48;;;;;;;18.33;9.57;;;0.60;99.90;;;;;;4992019;28;20106;-60
2021/01/11 10:04:16;;;;;;;18.15;8.80;;;1.40;99.90;;;;;;4993126;28;20038;-60
2021/01/11 10:06:45;;;;;;;16.55;8.90;;;3.20;99.90;;;;;;4993450;28;20034;-61
2021/01/11 10:09:12;;;;;;;17.98;8.98;;;4.90;99.90;;;;;;4992870;28;20035;-61
2021/01/11 10:11:40;;;;;;;20.70;10.10;;;5.90;99.70;;;;;;4993310;28;20060;-61
2021/01/11 10:14:07;;;;;;;18.52;8.95;;;6.50;99.20;;;;;;4993199;28;20026;-61
2021/01/11 10:16:38;;;;;;;21.75;10.32;;;7.60;95.60;;;;;;4993251;28;20038;-61
2021/01/11 10:19:03;;;;;;;18.38;9.57;;;8.30;93.30;;;;;;4992027;28;20030;-61
2021/01/11 10:21:29;;;;;;;20.80;10.60;;;9.00;91.60;;;;;;4992873;28;20089;-61
2021/01/11 10:23:55;;;;;;;16.33;8.65;;;8.30;91.40;;;;;;4992803;28;20049;-60
2021/01/11 10:26:22;;;;;;;19.08;10.10;;;7.30;93.80;;;;;;4992651;28;20035;-60
2021/01/11 10:28:50;;;;;;;19.38;10.00;;;7.20;93.20;;;;;;4993051;28;20117;-60
2021/01/11 10:31:18;;;;;;;22.02;10.35;;;5.60;98.10;;;;;;4992493;28;20050;-61
2021/01/11 10:33:48;;;;;;;19.30;9.63;;;5.80;99.90;;;;;;4991802;28;20165;-61
2021/01/11 10:36:17;;;;;;;15.75;9.35;;;8.30;94.20;;;;;;4992744;28;20294;-60
2021/01/11 10:38:44;;;;;;;18.95;8.70;;;8.80;92.20;;;;;;4992659;28;20034;-61
2021/01/11 10:41:17;;;;;;;16.20;8.23;;;10.20;82.60;;;;;;4992654;28;20076;-61
2021/01/11 10:43:45;;;;;;;17.90;8.95;;;10.60;80.10;;;;;;4992894;28;20031;-60
2021/01/11 10:46:11;;;;;;;21.63;9.48;;;11.40;73.40;;;;;;4992334;28;20043;-60
2021/01/11 10:48:40;;;;;;;14.95;8.35;;;10.10;75.10;;;;;;4992807;28;20030;-60
2021/01/11 10:51:10;;;;;;;16.20;9.18;;;12.10;70.20;;;;;;4992284;28;20039;-58
2021/01/11 10:53:41;;;;;;;17.33;9.45;;;12.80;65.20;;;;;;4992858;28;20038;-60
2021/01/11 10:56:07;;;;;;;16.60;9.30;;;12.90;63.00;;;;;;4992399;28;20072;-60
2021/01/11 10:58:36;;;;;;;15.18;8.90;;;12.40;64.00;;;;;;4992721;28;20042;-60
2021/01/11 11:01:09;;;;;;;14.95;8.70;;;11.90;66.20;;;;;;4991166;28;20034;-58
2021/01/11 11:03:35;;;;;;;16.60;9.00;;;12.80;63.90;;;;;;4987047;28;20031;-58
2021/01/11 11:06:01;;;;;;;17.25;9.55;;;12.30;65.90;;;;;;4992297;28;20034;-61
2021/01/11 11:08:27;;;;;;;15.43;8.68;;;12.80;63.30;;;;;;4992703;28;20053;-59
2021/01/11 11:10:53;;;;;;;17.17;9.43;;;12.50;61.60;;;;;;4992002;28;20034;-59
2021/01/11 11:13:19;;;;;;;15.93;8.82;;;11.70;63.00;;;;;;4993298;28;20116;-59
2021/01/11 11:15:47;;;;;;;18.05;9.45;;;10.90;67.30;;;;;;4993260;28;20084;-57
2021/01/11 11:18:14;;;;;;;18.10;8.52;;;10.70;66.90;;;;;;4994513;28;20034;-58
2021/01/11 11:20:44;;;;;;;18.25;9.35;;;10.10;69.00;;;;;;4995390;28;20042;-59
2021/01/11 11:23:10;;;;;;;15.60;9.02;;;9.90;70.50;;;;;;4995276;28;20023;-59
2021/01/11 11:25:37;;;;;;;18.10;8.80;;;9.60;70.10;;;;;;4995854;28;20084;-55
2021/01/11 11:28:03;;;;;;;16.85;7.95;;;8.50;71.80;;;;;;4995336;28;20030;-59
2021/01/11 11:30:31;;;;;;;19.05;9.95;;;8.10;75.90;;;;;;4995766;28;20031;-58
2021/01/11 11:32:57;;;;;;;14.80;8.05;;;8.50;75.90;;;;;;4995838;28;20097;-58
2021/01/11 11:35:23;;;;;;;17.15;8.45;;;7.70;78.70;;;;;;4995667;28;20034;-58
2021/01/11 11:37:50;;;;;;;15.98;7.97;;;7.60;79.00;;;;;;4995990;28;20030;-58
2021/01/11 11:40:17;;;;;;;19.10;9.25;;;7.10;83.90;;;;;;4996039;28;20026;-57
2021/01/11 11:42:44;;;;;;;19.48;9.20;;;6.80;86.30;;;;;;4995929;28;20026;-55
2021/01/11 11:45:14;;;;;;;17.70;8.98;;;6.70;87.80;;;;;;4995759;28;20034;-58
2021/01/11 11:47:42;;;;;;;20.08;8.98;;;7.90;84.80;;;;;;4995477;28;20168;-58
2021/01/11 11:50:14;;;;;;;17.08;8.75;;;9.00;80.30;;;;;;4995418;28;20030;-58
2021/01/11 11:52:41;;;;;;;16.63;8.45;;;8.90;79.30;;;;;;4995521;28;20041;-60
2021/01/11 11:55:10;;;;;;;18.10;9.10;;;9.10;79.00;;;;;;4995535;28;20034;-61
2021/01/11 11:57:41;;;;;;;16.38;9.10;;;8.30;81.50;;;;;;4995226;28;20038;-60
2021/01/11 12:00:11;;;;;;;17.75;8.32;;;8.40;81.10;;;;;;4995267;28;20103;-59
2021/01/11 12:02:45;;;;;;;18.60;9.30;;;8.50;79.40;;;;;;4995539;28;20041;-59
2021/01/11 12:05:13;;;;;;;15.90;8.68;;;8.40;79.30;;;;;;4995204;28;20042;-59
2021/01/11 12:07:39;;;;;;;23.60;8.07;;;8.50;77.60;;;;;;4995233;28;20120;-59
2021/01/11 12:10:09;;;;;;;20.70;8.60;;;8.10;80.10;;;;;;4995162;28;20034;-59
2021/01/11 12:12:34;;;;;;;16.95;8.35;;;8.50;78.90;;;;;;4995296;28;20026;-58
2021/01/11 12:15:03;;;;;;;18.55;9.50;;;7.80;79.30;;;;;;4994932;28;20045;-60
2021/01/11 12:17:30;;;;;;;24.00;9.55;;;7.90;79.80;;;;;;4995205;28;20030;-59
2021/01/11 12:19:56;;;;;;;14.23;8.02;;;7.60;80.90;;;;;;4995018;28;20109;-60
2021/01/11 12:22:22;;;;;;;23.10;8.65;;;7.80;82.10;;;;;;4994943;28;20126;-59
2021/01/11 12:24:49;;;;;;;21.50;8.40;;;8.20;79.10;;;;;;4993683;28;20038;-59
2021/01/11 12:27:15;;;;;;;17.95;9.65;;;7.70;80.90;;;;;;4995011;28;20105;-60
2021/01/11 12:29:41;;;;;;;17.48;8.95;;;7.60;81.90;;;;;;4994699;28;20133;-60
2021/01/11 12:32:08;;;;;;;16.95;8.70;;;7.70;82.20;;;;;;4993446;28;20050;-60
2021/01/11 12:34:44;;;;;;;15.88;8.38;;;8.00;81.50;;;;;;4995038;28;20026;-58
2021/01/11 12:37:15;;;;;;;16.33;8.73;;;7.50;83.50;;;;;;4994485;28;20056;-59
2021/01/11 12:39:42;;;;;;;15.52;9.02;;;7.40;81.90;;;;;;4994955;28;20036;-59
2021/01/11 12:42:10;;;;;;;20.30;9.18;;;7.00;85.10;;;;;;4994637;28;20026;-58
2021/01/11 12:44:37;;;;;;;16.95;8.32;;;7.60;83.60;;;;;;4994740;28;20121;-60
2021/01/11 12:47:05;;;;;;;18.13;9.77;;;6.90;88.00;;;;;;4994719;28;20031;-58
2021/01/11 12:49:31;;;;;;;16.95;9.70;;;7.30;87.30;;;;;;4994577;28;20092;-59